Terminal Aerodrome Forecast
Issued by NWS Austin/San Antonio, TX

Home | Current Version | Previous Version | Text Only | Print | Product List | Glossary On
Versions: 1 2 3 4 5 6 7 8 9 10 11 12 13 14
000
FTUS44 KEWX 252300
TAFAUS
TAF
KAUS 252321Z 2600/2706 16007KT P6SM FEW070 SCT250
     FM260800 19006KT P6SM SCT012
      TEMPO 2610/2613 BKN012
     FM261600 20011KT P6SM FEW035
     FM262100 16012KT P6SM FEW060=

USA.gov is the U.S. government's official web portal to all federal, state and local government web resources and services.